EGJJLFRD

Guest
Details From EGJJ - Jersey
To LFRD - Dinard Pleurtuit-St Malo
Flight Number -
Tags generated
Created
Modified
Stats Distance 38 nm / 70 km
Max Altitude 0 ft / 0 m
Waypoints 3
Social Downloads 7
Likes 0
Share VATSIM

Download

Looking for another format? Having issues loading an existing format? Contact us
Advertisement - Login to hide

Notes

Basic altitude profile: - Ascent Rate: 2500ft/min - Ascent Speed: 250kts - Cruise Altitude: 35000ft - Cruise Speed: 420kts - Descent Rate: 1500ft/min - Descent Speed: 250kts

Route

EGJJ DIN LFRD

ID Type Via Altitude Latitude Longitude Leg Dist Tot Dist Heading (true) Name
O EGJJ APT - 0 ft / 0 m 49.20796˚ -2.19529˚ - 0 nm - Jersey
DIN VOR - 0 ft / 0 m 48.58606˚ -2.08233˚ 37 nm 37 nm 173° / 173° DINARD PLEURTUIT SAINT MALO VO
O LFRD APT - 0 ft / 0 m 48.58798˚ -2.07992˚ 0 nm 37 nm 40° / 40° Dinard Pleurtuit-St Malo

Altitude Profile

Advertisement - Login to hide

EGJJ

Details ICAO EGJJ (JER)
Name Jersey
Region United Kingdom
Timezone Europe/Jersey (UTC+1.0)
Stats Elevation 277 ft / 84 m (AMSL)
Location 49.207964° -2.195294°
Runways 1
Magnetic Variation 0.841° W

METAR

EGJJ 240650Z 07004KT 040V120 5000 VCFG BR FEW000 BKN005 13/11 Q1019

Decode

TAF

Not found

Departure Runways

ID Width Length Bearing (true) Bearing (mag) Surface Threshold Offset Overrun Length
09 151 ft / 46 m 5,593 ft / 1,705 m 82.73° 83.57° Asphalt 200 ft / 61 m 0 ft / 0 m
27 151 ft / 46 m 5,593 ft / 1,705 m 262.74° 263.58° Asphalt 302 ft / 92 m 0 ft / 0 m

LFRD

Details ICAO LFRD (DNR)
Name Dinard Pleurtuit-St Malo
Region France
Timezone Europe/Paris (UTC+2.0)
Stats Elevation 216 ft / 66 m (AMSL)
Location 48.587983° -2.079916°
Runways 2
Magnetic Variation 0.737° W

METAR

LFRD 240700Z AUTO 02004KT 340V080 5000 BR OVC008 14/12 Q1019 BECMG SCT020

Decode

TAF

TAF LFRD 240500Z 2406/2506 04005KT 4000 BR BKN009 PROB30 TEMPO 2406/2408 3000 BR BKN003 BECMG 2408/2410 9999 NSW SCT020 PROB40 TEMPO 2410/2412 BKN009 BECMG 2412/2414 33010KT BECMG 2421/2423 3000 BR BKN003 BECMG 2500/2502 01005KT

Decode

Destination Runways

ID Width Length Bearing (true) Bearing (mag) Surface Threshold Offset Overrun Length
12 148 ft / 45 m 4,909 ft / 1,496 m 115.13° 115.87° Asphalt 0 ft / 0 m 0 ft / 0 m
17 148 ft / 45 m 7,199 ft / 2,194 m 170.09° 170.83° Asphalt 0 ft / 0 m 0 ft / 0 m
30 148 ft / 45 m 4,909 ft / 1,496 m 295.14° 295.88° Asphalt 669 ft / 204 m 0 ft / 0 m
35 148 ft / 45 m 7,199 ft / 2,194 m 350.10° 350.84° Asphalt 0 ft / 0 m 0 ft / 0 m

Approach Navaids

Runway Type Ident Frequency Range Bearing (true) Bearing (mag) Slope Elevation
35 Localiser DR 110.75 MHz 27 nm / 50 km 350.08° 350.82° - 216 ft / 66 m (AMSL)
35 Glidescope DR 110.75 MHz 27 nm / 50 km 350.08° 350.82° 3.00° 216 ft / 66 m (AMSL)
35 DME DR 110.75 MHz 27 nm / 50 km - - - 216 ft / 66 m (AMSL)

Popular Alternatives